createdAt,value
2018-05-17T00:01:46.638Z,19.14
2018-05-17T00:04:15.568Z,19.06
2018-05-17T00:06:44.361Z,19.01
2018-05-17T00:09:12.882Z,18.89
2018-05-17T00:11:45.285Z,18.77
2018-05-17T00:14:14.197Z,18.80
2018-05-17T00:16:42.808Z,18.82
2018-05-17T00:19:11.610Z,18.79
2018-05-17T00:21:40.134Z,18.72
2018-05-17T00:24:09.043Z,18.70
2018-05-17T00:26:38.682Z,18.68
2018-05-17T00:29:07.236Z,18.61
2018-05-17T00:31:36.020Z,18.55
2018-05-17T00:34:05.820Z,18.45
2018-05-17T00:36:34.363Z,18.32
2018-05-17T00:39:05.203Z,18.18
2018-05-17T00:41:33.747Z,18.11
2018-05-17T00:44:04.015Z,18.11
2018-05-17T00:46:32.534Z,18.08
2018-05-17T00:49:01.519Z,18.09
2018-05-17T00:51:30.082Z,17.98
2018-05-17T00:53:58.649Z,17.89
2018-05-17T00:56:27.519Z,17.87
2018-05-17T00:58:56.884Z,17.85
2018-05-17T01:01:25.445Z,17.74
2018-05-17T01:03:54.061Z,17.72
2018-05-17T01:06:22.607Z,17.70
2018-05-17T01:08:57.508Z,17.72
2018-05-17T01:11:26.106Z,17.63
2018-05-17T01:13:54.752Z,17.64
2018-05-17T01:16:23.560Z,17.68
2018-05-17T01:18:55.051Z,17.67
2018-05-17T01:21:23.847Z,17.66
2018-05-17T01:23:52.402Z,17.61
2018-05-17T01:26:20.911Z,17.62
2018-05-17T01:28:51.852Z,17.64
2018-05-17T01:31:20.407Z,17.61
2018-05-17T01:33:51.197Z,17.64
2018-05-17T01:36:19.735Z,17.62
2018-05-17T01:38:48.524Z,17.62
2018-05-17T01:41:17.095Z,17.58
2018-05-17T01:43:45.634Z,17.51
2018-05-17T01:46:14.200Z,17.53
2018-05-17T01:48:44.151Z,17.53
2018-05-17T01:51:12.672Z,17.58
2018-05-17T01:53:41.171Z,17.58
2018-05-17T01:56:09.748Z,17.55
2018-05-17T01:58:39.886Z,17.54
2018-05-17T02:01:08.479Z,17.54
2018-05-17T02:03:37.192Z,17.52
2018-05-17T02:06:09.812Z,17.55
2018-05-17T02:08:38.539Z,17.58
2018-05-17T02:11:07.096Z,17.56
2018-05-17T02:13:35.770Z,17.55
2018-05-17T02:16:15.509Z,17.49
2018-05-17T02:18:44.080Z,17.45
2018-05-17T02:21:13.857Z,17.36
2018-05-17T02:23:42.308Z,17.37
2018-05-17T02:26:10.851Z,17.39
2018-05-17T02:28:39.910Z,17.43
2018-05-17T02:31:08.531Z,17.40
2018-05-17T02:33:40.814Z,17.38
2018-05-17T02:36:09.327Z,17.39
2018-05-17T02:38:38.294Z,17.40
2018-05-17T02:41:06.811Z,17.42
2018-05-17T02:43:37.459Z,17.42
2018-05-17T02:46:05.991Z,17.42
2018-05-17T02:48:34.790Z,17.47
2018-05-17T02:51:03.364Z,17.47
2018-05-17T02:53:31.903Z,17.39
2018-05-17T02:56:04.837Z,17.38
2018-05-17T02:59:36.351Z,17.41
2018-05-17T03:02:07.202Z,17.33
2018-05-17T03:04:35.862Z,17.30
2018-05-17T03:07:08.255Z,17.34
2018-05-17T03:09:37.247Z,17.30
2018-05-17T03:12:05.755Z,17.21
2018-05-17T03:14:34.442Z,17.11
2018-05-17T03:17:03.686Z,17.11
2018-05-17T03:19:32.174Z,17.13
2018-05-17T03:22:00.707Z,17.11
2018-05-17T03:24:29.502Z,17.08
2018-05-17T03:26:58.105Z,17.07
2018-05-17T03:29:26.666Z,17.08
2018-05-17T03:31:55.752Z,17.14
2018-05-17T03:34:29.823Z,17.12
2018-05-17T03:36:58.331Z,17.12
2018-05-17T03:39:26.867Z,17.10
2018-05-17T03:41:55.536Z,17.12
2018-05-17T03:44:24.060Z,17.11
2018-05-17T03:46:52.857Z,17.12
2018-05-17T03:49:21.683Z,17.11
2018-05-17T03:51:50.226Z,17.09
2018-05-17T03:54:18.759Z,17.04
2018-05-17T03:56:47.572Z,16.98
2018-05-17T03:59:26.904Z,17.03
2018-05-17T04:02:06.931Z,17.07
2018-05-17T04:06:48.479Z,17.12
2018-05-17T04:09:23.956Z,17.06
2018-05-17T04:11:52.471Z,17.06
2018-05-17T04:14:26.577Z,17.07
2018-05-17T04:16:55.059Z,17.05
2018-05-17T04:19:34.620Z,16.93
2018-05-17T04:22:04.222Z,16.87
2018-05-17T04:24:32.811Z,16.79
2018-05-17T04:27:01.379Z,16.78
2018-05-17T04:29:30.334Z,16.77
2018-05-17T04:31:58.935Z,16.73
2018-05-17T04:34:27.419Z,16.72
2018-05-17T04:36:56.199Z,16.70
2018-05-17T04:39:24.674Z,16.66
2018-05-17T04:41:58.655Z,16.60
2018-05-17T04:44:27.428Z,16.62
2018-05-17T04:47:00.170Z,16.69
2018-05-17T04:52:27.755Z,16.64
2018-05-17T04:54:56.335Z,16.57
2018-05-17T04:57:24.863Z,16.55
2018-05-17T04:59:53.967Z,16.54
2018-05-17T05:02:22.515Z,16.49
2018-05-17T05:04:51.098Z,16.55
2018-05-17T05:07:23.983Z,16.57
2018-05-17T05:09:52.519Z,16.57
2018-05-17T05:12:21.175Z,16.51
2018-05-17T05:14:50.046Z,16.48
2018-05-17T05:17:18.594Z,16.48
2018-05-17T05:19:58.204Z,16.45
2018-05-17T05:22:27.007Z,16.49
2018-05-17T05:24:55.520Z,16.57
2018-05-17T05:27:24.041Z,16.59
2018-05-17T05:29:52.719Z,16.65
2018-05-17T05:32:21.246Z,16.69
2018-05-17T05:34:51.415Z,16.68
2018-05-17T05:37:24.701Z,16.69
2018-05-17T05:39:53.215Z,16.57
2018-05-17T05:42:29.067Z,16.59
2018-05-17T05:44:58.022Z,16.62
2018-05-17T05:47:26.549Z,16.58
2018-05-17T05:49:55.347Z,16.62
2018-05-17T05:52:34.572Z,16.64
2018-05-17T05:55:03.703Z,16.59
2018-05-17T05:57:32.258Z,16.56
2018-05-17T06:00:00.797Z,16.47
2018-05-17T06:02:29.633Z,16.50
2018-05-17T06:04:58.174Z,16.52
2018-05-17T06:07:26.819Z,16.55
2018-05-17T06:09:55.679Z,16.48
2018-05-17T06:12:24.319Z,16.46
2018-05-17T06:14:53.144Z,16.43
2018-05-17T06:17:21.732Z,16.39
2018-05-17T06:19:50.549Z,16.45
2018-05-17T06:22:19.402Z,16.49
2018-05-17T06:24:48.427Z,16.50
2018-05-17T06:27:17.062Z,16.52
2018-05-17T06:29:45.611Z,16.58
2018-05-17T06:32:14.157Z,16.50
2018-05-17T06:34:44.247Z,16.48
2018-05-17T06:37:12.868Z,16.51
2018-05-17T06:39:42.120Z,16.52
2018-05-17T06:42:11.191Z,16.56
2018-05-17T06:44:41.923Z,16.59
2018-05-17T06:47:10.524Z,16.62
2018-05-17T06:49:40.587Z,16.69
2018-05-17T06:52:09.142Z,16.73
2018-05-17T06:54:37.939Z,16.78
2018-05-17T06:57:07.850Z,16.81
2018-05-17T06:59:36.688Z,16.90
2018-05-17T07:02:06.348Z,16.83
2018-05-17T07:04:35.152Z,16.77
2018-05-17T07:07:04.257Z,16.78
2018-05-17T07:09:32.772Z,16.85
2018-05-17T07:12:01.769Z,16.84
2018-05-17T07:14:30.318Z,16.85
2018-05-17T07:16:59.245Z,16.77
2018-05-17T07:19:33.870Z,16.72
2018-05-17T07:22:03.531Z,16.82
2018-05-17T07:24:32.086Z,16.88
2018-05-17T07:27:00.979Z,16.97
2018-05-17T07:29:29.554Z,16.90
2018-05-17T07:31:58.390Z,16.87
2018-05-17T07:34:28.140Z,16.86
2018-05-17T07:36:56.700Z,16.92
2018-05-17T07:39:26.198Z,16.97
2018-05-17T07:41:54.741Z,17.14
2018-05-17T07:44:23.364Z,17.28
2018-05-17T07:46:52.342Z,17.24
2018-05-17T07:49:25.872Z,17.39
2018-05-17T07:51:54.443Z,17.43
2018-05-17T07:54:23.069Z,17.57
2018-05-17T07:56:51.689Z,17.68
2018-05-17T07:59:20.853Z,17.74
2018-05-17T08:01:49.622Z,17.77
2018-05-17T08:04:24.587Z,17.76
2018-05-17T08:06:53.436Z,17.83
2018-05-17T08:09:22.090Z,17.99
2018-05-17T08:11:50.897Z,17.94
2018-05-17T08:14:20.178Z,18.01
2018-05-17T08:16:48.794Z,18.14
2018-05-17T08:19:18.481Z,18.19
2018-05-17T08:21:47.522Z,18.34
2018-05-17T08:24:16.053Z,18.33
2018-05-17T08:26:44.913Z,18.42
2018-05-17T08:29:13.455Z,18.68
2018-05-17T08:31:42.619Z,18.92
2018-05-17T08:34:11.607Z,19.15
2018-05-17T08:36:45.903Z,19.21
2018-05-17T08:39:14.779Z,19.22
2018-05-17T08:41:47.592Z,19.25
2018-05-17T08:44:16.213Z,19.25
2018-05-17T08:46:45.086Z,19.04
2018-05-17T08:49:13.599Z,19.09
2018-05-17T08:51:42.411Z,19.07
2018-05-17T08:54:10.978Z,19.11
2018-05-17T08:56:39.579Z,18.97
2018-05-17T08:59:08.456Z,18.87
2018-05-17T09:01:37.214Z,18.98
2018-05-17T09:04:06.269Z,19.05
2018-05-17T09:06:34.864Z,18.99
2018-05-17T09:09:04.283Z,18.94
2018-05-17T09:11:33.389Z,18.92
2018-05-17T09:14:03.903Z,18.97
2018-05-17T09:16:43.471Z,19.08
2018-05-17T09:19:12.011Z,18.87
2018-05-17T09:21:40.552Z,18.78
2018-05-17T09:24:13.203Z,18.89
2018-05-17T09:26:41.739Z,18.79
2018-05-17T09:29:10.442Z,18.80
2018-05-17T09:31:39.103Z,19.01
2018-05-17T09:34:07.639Z,19.05
2018-05-17T09:36:36.679Z,18.92
2018-05-17T09:39:07.088Z,18.96
2018-05-17T09:41:35.707Z,18.96
2018-05-17T09:44:11.534Z,19.11
2018-05-17T09:46:40.593Z,18.91
2018-05-17T09:49:09.556Z,19.01
2018-05-17T09:51:38.540Z,19.20
2018-05-17T09:54:10.091Z,19.32
2018-05-17T09:56:38.785Z,19.55
2018-05-17T09:59:09.360Z,19.74
2018-05-17T10:01:38.035Z,20.01
2018-05-17T10:04:06.574Z,20.20
2018-05-17T10:06:35.293Z,20.42
2018-05-17T10:09:07.524Z,20.74
2018-05-17T10:11:36.903Z,20.72
2018-05-17T10:14:11.283Z,20.74
2018-05-17T10:16:39.908Z,20.72
2018-05-17T10:19:08.794Z,20.80
2018-05-17T10:21:37.647Z,20.79
2018-05-17T10:24:07.668Z,21.13
2018-05-17T10:26:36.193Z,21.32
2018-05-17T10:29:05.493Z,21.38
2018-05-17T10:31:34.011Z,21.48
2018-05-17T10:34:04.647Z,21.62
2018-05-17T10:36:35.569Z,21.74
2018-05-17T10:39:05.941Z,21.52
2018-05-17T10:41:34.457Z,21.53
2018-05-17T10:44:04.328Z,21.41
2018-05-17T10:46:32.904Z,21.41
2018-05-17T10:49:01.507Z,21.49
2018-05-17T10:51:31.473Z,21.83
2018-05-17T10:54:00.359Z,22.19
2018-05-17T10:56:34.794Z,22.37
2018-05-17T10:59:03.779Z,22.42
2018-05-17T11:01:35.765Z,22.62
2018-05-17T11:04:05.139Z,22.92
2018-05-17T11:06:33.670Z,23.01
2018-05-17T11:09:02.372Z,23.34
2018-05-17T11:11:31.027Z,23.55
2018-05-17T11:13:59.635Z,23.77
2018-05-17T11:16:32.179Z,24.20
2018-05-17T11:19:00.774Z,24.47
2018-05-17T11:21:29.448Z,24.65
2018-05-17T11:23:58.656Z,24.68
2018-05-17T11:26:27.202Z,24.26
2018-05-17T11:29:07.109Z,24.38
2018-05-17T11:31:35.630Z,24.57
2018-05-17T11:34:06.747Z,24.82
2018-05-17T11:36:39.528Z,24.80
2018-05-17T11:39:08.363Z,24.79
2018-05-17T11:41:42.528Z,24.88
2018-05-17T11:44:11.403Z,24.77
2018-05-17T11:46:39.959Z,24.80
2018-05-17T11:49:08.790Z,24.93
2018-05-17T11:51:38.157Z,24.91
2018-05-17T11:54:06.711Z,24.48
2018-05-17T11:56:35.804Z,24.34
2018-05-17T11:59:04.482Z,24.43
2018-05-17T12:01:33.186Z,24.59
2018-05-17T12:04:04.365Z,24.52
2018-05-17T12:06:33.131Z,24.29
2018-05-17T12:11:38.181Z,24.20
2018-05-17T12:14:06.791Z,24.12
2018-05-17T12:16:35.610Z,23.95
2018-05-17T12:19:10.741Z,24.04
2018-05-17T12:21:39.607Z,23.97
2018-05-17T12:24:08.264Z,23.90
2018-05-17T12:26:36.896Z,23.66
2018-05-17T12:29:05.858Z,23.75
2018-05-17T12:31:34.420Z,23.90
2018-05-17T12:34:04.529Z,24.16
2018-05-17T12:36:33.477Z,24.44
2018-05-17T12:39:02.056Z,24.32
2018-05-17T12:41:30.635Z,24.67
2018-05-17T12:44:05.843Z,25.19
2018-05-17T12:46:38.611Z,25.42
2018-05-17T12:49:07.263Z,25.83
2018-05-17T12:51:37.402Z,25.70
2018-05-17T12:54:07.070Z,26.18
2018-05-17T12:56:37.280Z,26.37
2018-05-17T13:02:13.614Z,26.79
2018-05-17T13:04:42.731Z,26.75
2018-05-17T13:07:11.345Z,26.70
2018-05-17T13:09:40.189Z,26.32
2018-05-17T13:12:08.781Z,26.17
2018-05-17T13:14:44.431Z,26.25
2018-05-17T13:17:13.004Z,26.35
2018-05-17T13:19:47.443Z,25.69
2018-05-17T13:22:16.289Z,25.96
2018-05-17T13:24:44.870Z,25.63
2018-05-17T13:27:13.386Z,25.57
2018-05-17T13:29:43.312Z,25.68
2018-05-17T13:32:11.859Z,25.36
2018-05-17T13:34:40.891Z,25.15
2018-05-17T13:37:09.704Z,25.05
2018-05-17T13:39:43.944Z,24.70
2018-05-17T13:42:12.469Z,24.57
2018-05-17T13:44:41.307Z,24.53
2018-05-17T13:47:09.809Z,24.45
2018-05-17T13:49:38.816Z,24.41
2018-05-17T13:52:10.143Z,24.18
2018-05-17T13:54:40.308Z,24.23
2018-05-17T13:57:08.811Z,24.15
2018-05-17T14:08:09.988Z,23.82
2018-05-17T14:10:38.844Z,23.84
2018-05-17T14:13:09.399Z,23.85
2018-05-17T14:15:38.054Z,23.61
2018-05-17T14:18:08.815Z,23.45
2018-05-17T14:20:37.495Z,23.32
2018-05-17T14:23:06.170Z,23.56
2018-05-17T14:25:34.687Z,23.72
2018-05-17T14:28:05.931Z,23.96
2018-05-17T14:30:34.599Z,24.12
2018-05-17T14:33:03.402Z,24.64
2018-05-17T14:35:32.327Z,25.36
2018-05-17T14:38:00.851Z,26.17
2018-05-17T14:40:31.246Z,27.10
2018-05-17T14:43:00.446Z,27.96
2018-05-17T14:45:28.995Z,28.45
2018-05-17T14:47:57.660Z,28.95
2018-05-17T14:50:27.701Z,28.78
2018-05-17T14:53:03.659Z,29.19
2018-05-17T14:55:32.572Z,29.27
2018-05-17T14:58:01.172Z,29.57
2018-05-17T15:00:29.824Z,30.12
2018-05-17T15:02:59.181Z,30.45
2018-05-17T15:05:28.430Z,30.21
2018-05-17T15:07:57.015Z,30.43
2018-05-17T15:10:25.851Z,30.31
2018-05-17T15:12:58.917Z,29.99
2018-05-17T15:15:27.500Z,29.47
2018-05-17T15:18:01.618Z,29.57
2018-05-17T15:20:30.792Z,29.83
2018-05-17T15:22:59.387Z,29.98
2018-05-17T15:25:28.905Z,30.42
2018-05-17T15:27:57.614Z,30.34
2018-05-17T15:30:26.194Z,30.32
2018-05-17T15:32:55.054Z,29.87
2018-05-17T15:35:28.498Z,30.01
2018-05-17T15:37:57.143Z,29.91
2018-05-17T15:40:25.992Z,29.88
2018-05-17T15:42:55.028Z,28.68
2018-05-17T15:45:23.621Z,28.36
2018-05-17T15:47:52.563Z,28.01
2018-05-17T15:50:21.108Z,27.83
2018-05-17T15:52:49.715Z,27.42
2018-05-17T15:55:18.687Z,27.14
2018-05-17T15:57:47.441Z,27.15
2018-05-17T16:00:16.039Z,27.04
2018-05-17T16:02:45.109Z,26.50
2018-05-17T16:05:13.654Z,26.55
2018-05-17T16:07:42.207Z,26.17
2018-05-17T16:10:11.167Z,26.16
2018-05-17T16:12:41.137Z,26.02
2018-05-17T16:15:09.874Z,25.88
2018-05-17T16:17:39.730Z,26.05
2018-05-17T16:20:08.326Z,26.03
2018-05-17T16:22:43.254Z,25.83
2018-05-17T16:25:12.259Z,25.90
2018-05-17T16:27:40.829Z,25.80
2018-05-17T16:30:09.341Z,26.00
2018-05-17T16:35:18.068Z,26.07
2018-05-17T16:37:46.772Z,26.25
2018-05-17T16:40:15.343Z,26.27
2018-05-17T16:42:44.353Z,26.69
2018-05-17T16:45:13.393Z,27.06
2018-05-17T16:47:41.987Z,27.25
2018-05-17T16:50:10.579Z,27.22
2018-05-17T16:52:39.828Z,27.16
2018-05-17T16:55:08.283Z,27.02
2018-05-17T16:57:38.477Z,26.70
2018-05-17T17:00:07.298Z,26.63
2018-05-17T17:02:35.815Z,26.46
2018-05-17T17:05:04.556Z,26.51
2018-05-17T17:07:33.364Z,26.19
2018-05-17T17:10:04.009Z,25.89
2018-05-17T17:12:32.790Z,25.92
2018-05-17T17:15:01.927Z,25.71
2018-05-17T17:17:30.595Z,25.63
2018-05-17T17:19:59.999Z,25.63
2018-05-17T17:22:28.564Z,25.84
2018-05-17T17:24:57.096Z,25.69
2018-05-17T17:27:29.631Z,25.72
2018-05-17T17:29:58.164Z,25.88
2018-05-17T17:32:27.761Z,25.56
2018-05-17T17:34:59.591Z,25.22
2018-05-17T17:37:28.476Z,25.17
2018-05-17T17:42:33.556Z,25.27
2018-05-17T17:45:02.391Z,25.16
2018-05-17T17:50:05.217Z,25.18
2018-05-17T17:52:33.841Z,24.93
2018-05-17T17:57:36.175Z,24.57
2018-05-17T18:00:06.180Z,24.48
2018-05-17T18:02:34.800Z,24.32
2018-05-17T18:05:03.748Z,24.21
2018-05-17T18:07:34.311Z,23.92
2018-05-17T18:10:04.784Z,23.69
2018-05-17T18:12:34.838Z,23.71
2018-05-17T18:15:03.443Z,23.66
2018-05-17T18:17:32.745Z,23.61
2018-05-17T18:20:08.115Z,23.59
2018-05-17T18:22:36.851Z,23.35
2018-05-17T18:25:09.446Z,23.11
2018-05-17T18:27:38.746Z,22.98
2018-05-17T18:30:07.647Z,22.95
2018-05-17T18:32:36.301Z,22.74
2018-05-17T18:35:07.012Z,22.52
2018-05-17T18:37:37.438Z,22.31
2018-05-17T18:40:06.019Z,22.23
2018-05-17T18:42:34.863Z,22.12
2018-05-17T18:45:05.759Z,21.98
2018-05-17T18:47:34.324Z,22.01
2018-05-17T18:50:04.872Z,21.94
2018-05-17T18:52:33.456Z,21.79
2018-05-17T18:55:07.192Z,21.67
2018-05-17T18:57:36.211Z,21.53
2018-05-17T19:00:05.722Z,21.38
2018-05-17T19:02:34.254Z,21.37
2018-05-17T19:05:03.106Z,21.29
2018-05-17T19:07:31.652Z,21.18
2018-05-17T19:10:02.204Z,21.04
2018-05-17T19:12:31.116Z,20.97
2018-05-17T19:15:00.100Z,20.88
2018-05-17T19:17:29.982Z,20.84
2018-05-17T19:19:59.059Z,20.80
2018-05-17T19:22:27.615Z,20.77
2018-05-17T19:24:56.267Z,20.73
2018-05-17T19:30:00.541Z,20.51
2018-05-17T19:32:34.707Z,20.48
2018-05-17T19:38:06.351Z,20.31
2018-05-17T19:40:52.644Z,20.24
2018-05-17T19:43:57.739Z,20.23
2018-05-17T19:46:26.660Z,20.20
2018-05-17T19:48:56.494Z,20.14
2018-05-17T19:51:25.078Z,20.09
2018-05-17T19:53:58.124Z,20.08
2018-05-17T19:56:26.741Z,20.06
2018-05-17T19:58:55.315Z,20.01
2018-05-17T20:01:24.596Z,19.97
2018-05-17T20:03:59.475Z,19.93
2018-05-17T20:06:28.392Z,19.89
2018-05-17T20:08:57.746Z,19.88
2018-05-17T20:11:26.920Z,19.82
2018-05-17T20:13:55.388Z,19.79
2018-05-17T20:16:24.554Z,19.78
2018-05-17T20:18:53.387Z,19.75
2018-05-17T20:21:25.961Z,19.71
2018-05-17T20:23:55.178Z,19.71
2018-05-17T20:26:25.064Z,19.68
2018-05-17T20:28:53.847Z,19.64
2018-05-17T20:31:23.136Z,19.59
2018-05-17T20:33:51.927Z,19.57
2018-05-17T20:36:21.556Z,19.53
2018-05-17T20:38:50.910Z,19.53
2018-05-17T20:41:19.451Z,19.50
2018-05-17T20:43:48.025Z,19.52
2018-05-17T20:46:17.076Z,19.46
2018-05-17T20:48:45.712Z,19.45
2018-05-17T20:51:14.314Z,19.43
2018-05-17T20:53:48.808Z,19.43
2018-05-17T20:56:17.339Z,19.33
2018-05-17T21:01:21.310Z,19.21
2018-05-17T21:03:50.142Z,19.19
2018-05-17T21:06:21.152Z,19.18
2018-05-17T21:08:49.725Z,19.12
2018-05-17T21:11:21.984Z,19.08
2018-05-17T21:13:51.315Z,19.04
2018-05-17T21:16:19.877Z,19.05
2018-05-17T21:18:48.410Z,19.07
2018-05-17T21:21:20.850Z,19.01
2018-05-17T21:23:49.342Z,18.97
2018-05-17T21:26:17.954Z,18.91
2018-05-17T21:28:47.388Z,18.89
2018-05-17T21:31:17.367Z,18.86
2018-05-17T21:33:46.060Z,18.85
2018-05-17T21:36:15.057Z,18.83
2018-05-17T21:38:46.655Z,18.80
2018-05-17T21:41:15.462Z,18.76
2018-05-17T21:46:18.655Z,18.66
2018-05-17T21:48:49.753Z,18.62
2018-05-17T21:51:19.219Z,18.57
2018-05-17T21:53:48.081Z,18.52
2018-05-17T21:56:16.731Z,18.51
2018-05-17T21:58:51.636Z,18.49
2018-05-17T22:01:20.416Z,18.45
2018-05-17T22:03:48.992Z,18.49
2018-05-17T22:06:21.132Z,18.46
2018-05-17T22:08:50.486Z,18.44
2018-05-17T22:11:30.273Z,18.41
2018-05-17T22:14:00.640Z,18.42
2018-05-17T22:16:29.759Z,18.38
2018-05-17T22:18:58.494Z,18.33
2018-05-17T22:21:27.383Z,18.31
2018-05-17T22:23:59.801Z,18.30
2018-05-17T22:26:28.390Z,18.27
2018-05-17T22:42:11.664Z,18.30
2018-05-17T22:44:40.697Z,18.22
2018-05-17T22:47:12.318Z,18.18
2018-05-17T22:49:41.715Z,18.14
2018-05-17T22:52:10.349Z,18.07
2018-05-17T22:54:39.636Z,17.95
2018-05-17T22:57:13.651Z,17.95
2018-05-17T22:59:42.205Z,17.94
2018-05-17T23:02:10.835Z,17.87
2018-05-17T23:04:41.043Z,17.85
2018-05-17T23:09:49.355Z,17.70
2018-05-17T23:12:18.002Z,17.66
2018-05-17T23:14:52.034Z,17.62
2018-05-17T23:17:20.690Z,17.55
2018-05-17T23:19:49.496Z,17.51
2018-05-17T23:22:23.991Z,17.47
2018-05-17T23:24:59.457Z,17.45
2018-05-17T23:40:30.692Z,17.53
2018-05-17T23:42:59.636Z,17.43
2018-05-17T23:45:28.167Z,17.35
2018-05-17T23:47:57.070Z,17.34
2018-05-17T23:50:25.665Z,17.31
2018-05-17T23:52:55.627Z,17.24
2018-05-17T23:55:26.080Z,17.22
2018-05-17T23:57:54.591Z,17.18
